createdAt,value
2022-12-06T00:01:53.643Z,89.87
2022-12-06T00:04:22.686Z,87.87
2022-12-06T00:06:52.568Z,93.23
2022-12-06T00:09:26.138Z,95.23
2022-12-06T00:11:56.422Z,96.27
2022-12-06T00:14:26.389Z,91.50
2022-12-06T00:16:55.512Z,92.00
2022-12-06T00:19:25.762Z,88.10
2022-12-06T00:21:54.761Z,94.23
2022-12-06T00:24:24.307Z,96.47
2022-12-06T00:26:53.211Z,88.23
2022-12-06T00:29:24.711Z,93.37
2022-12-06T00:31:53.723Z,89.50
2022-12-06T00:34:23.006Z,89.23
2022-12-06T00:36:52.217Z,99.93
2022-12-06T00:39:21.718Z,88.53
2022-12-06T00:41:50.514Z,92.03
2022-12-06T00:44:19.580Z,91.97
2022-12-06T00:46:50.147Z,94.50
2022-12-06T00:49:21.002Z,92.30
2022-12-06T00:51:50.487Z,92.30
2022-12-06T00:54:19.631Z,94.10
2022-12-06T00:56:48.746Z,97.43
2022-12-06T00:59:18.036Z,91.87
2022-12-06T01:01:46.743Z,96.53
2022-12-06T01:04:16.943Z,90.97
2022-12-06T01:06:45.880Z,90.57
2022-12-06T01:09:15.079Z,91.73
2022-12-06T01:11:44.126Z,90.03
2022-12-06T01:14:12.892Z,103.30
2022-12-06T01:16:42.087Z,90.97
2022-12-06T01:19:13.041Z,97.47
2022-12-06T01:21:44.698Z,91.67
2022-12-06T01:24:14.125Z,86.23
2022-12-06T01:26:43.155Z,97.80
2022-12-06T01:29:12.897Z,84.93
2022-12-06T01:31:41.535Z,91.60
2022-12-06T01:34:17.454Z,95.13
2022-12-06T01:36:48.322Z,94.80
2022-12-06T01:39:17.186Z,89.90
2022-12-06T01:41:45.914Z,85.53
2022-12-06T01:44:43.951Z,86.83
2022-12-06T01:47:16.525Z,89.57
2022-12-06T01:49:49.318Z,93.63
2022-12-06T01:52:20.603Z,88.43
2022-12-06T01:54:49.984Z,82.00
2022-12-06T01:57:19.947Z,90.13
2022-12-06T01:59:49.347Z,91.43
2022-12-06T02:02:18.395Z,96.10
2022-12-06T02:04:47.674Z,96.83
2022-12-06T02:07:18.959Z,103.30
2022-12-06T02:09:50.757Z,84.87
2022-12-06T02:12:19.715Z,89.20
2022-12-06T02:14:50.669Z,94.43
2022-12-06T02:17:29.766Z,94.43
2022-12-06T02:20:15.815Z,91.37
2022-12-06T02:23:17.512Z,92.37
2022-12-06T02:26:22.215Z,89.03
2022-12-06T02:29:26.752Z,91.93
2022-12-06T02:32:00.734Z,94.97
2022-12-06T02:34:37.682Z,90.53
2022-12-06T02:37:13.506Z,93.57
2022-12-06T02:39:50.315Z,95.37
2022-12-06T02:42:22.183Z,90.77
2022-12-06T02:44:54.808Z,100.53
2022-12-06T02:47:31.604Z,100.50
2022-12-06T02:50:02.753Z,90.93
2022-12-06T02:52:33.252Z,91.93
2022-12-06T02:55:04.703Z,102.23
2022-12-06T02:57:41.186Z,95.67
2022-12-06T03:00:34.755Z,95.63
2022-12-06T03:03:16.962Z,99.77
2022-12-06T03:06:05.066Z,93.63
2022-12-06T03:08:42.678Z,104.33
2022-12-06T03:11:12.314Z,102.33
2022-12-06T03:13:51.750Z,105.90
2022-12-06T03:16:37.410Z,112.93
2022-12-06T03:19:21.073Z,103.30
2022-12-06T03:21:55.990Z,107.53
2022-12-06T03:24:27.461Z,112.27
2022-12-06T03:26:59.350Z,120.50
2022-12-06T03:29:32.081Z,106.50
2022-12-06T03:32:04.336Z,111.63
2022-12-06T03:34:40.160Z,104.70
2022-12-06T03:37:13.673Z,108.03
2022-12-06T03:39:48.442Z,100.87
2022-12-06T03:42:19.522Z,106.03
2022-12-06T03:44:49.733Z,109.13
2022-12-06T03:47:22.937Z,103.93
2022-12-06T03:49:58.600Z,99.87
2022-12-06T03:52:31.149Z,94.97
2022-12-06T03:55:00.260Z,95.30
2022-12-06T03:57:31.336Z,110.47
2022-12-06T04:00:00.662Z,100.67
2022-12-06T04:02:29.625Z,106.20
2022-12-06T04:05:00.291Z,111.43
2022-12-06T04:07:29.311Z,104.50
2022-12-06T04:10:03.378Z,105.50
2022-12-06T04:12:51.302Z,111.80
2022-12-06T04:15:22.330Z,115.00
2022-12-06T04:18:09.319Z,107.43
2022-12-06T04:21:04.706Z,116.43
2022-12-06T04:23:36.483Z,101.03
2022-12-06T04:26:06.692Z,114.30
2022-12-06T04:28:55.606Z,112.30
2022-12-06T04:31:42.697Z,107.63
2022-12-06T04:34:32.481Z,115.93
2022-12-06T04:37:21.844Z,103.57
2022-12-06T04:39:50.732Z,112.53
2022-12-06T04:42:37.659Z,110.33
2022-12-06T04:45:07.846Z,129.57
2022-12-06T04:47:36.859Z,121.07
2022-12-06T04:50:06.525Z,114.13
2022-12-06T04:52:37.074Z,118.77
2022-12-06T04:55:08.284Z,122.27
2022-12-06T04:57:37.392Z,141.63
2022-12-06T05:00:07.804Z,131.80
2022-12-06T05:02:38.522Z,143.93
2022-12-06T05:05:08.569Z,132.47
2022-12-06T05:07:38.848Z,146.10
2022-12-06T05:10:09.569Z,138.83
2022-12-06T05:12:38.685Z,137.20
2022-12-06T05:15:08.437Z,132.90
2022-12-06T05:17:37.220Z,135.93
2022-12-06T05:20:07.327Z,136.60
2022-12-06T05:22:36.145Z,131.20
2022-12-06T05:25:06.906Z,134.30
2022-12-06T05:27:36.417Z,140.50
2022-12-06T05:30:06.414Z,154.30
2022-12-06T05:32:35.403Z,145.60
2022-12-06T05:35:08.165Z,151.37
2022-12-06T05:37:37.532Z,134.50
2022-12-06T05:40:09.916Z,157.20
2022-12-06T05:42:41.104Z,208.73
2022-12-06T05:45:11.329Z,184.37
2022-12-06T05:47:40.624Z,227.90
2022-12-06T05:50:10.891Z,201.40
2022-12-06T05:52:39.913Z,226.60
2022-12-06T05:55:10.392Z,155.93
2022-12-06T05:57:42.513Z,187.60
2022-12-06T06:00:16.629Z,184.83
2022-12-06T06:02:46.121Z,189.90
2022-12-06T06:05:15.750Z,118.30
2022-12-06T06:07:44.749Z,133.30
2022-12-06T06:10:15.930Z,118.43
2022-12-06T06:12:45.734Z,174.50
2022-12-06T06:15:15.982Z,127.20
2022-12-06T06:17:44.748Z,147.53
2022-12-06T06:20:14.985Z,174.27
2022-12-06T06:22:43.705Z,198.77
2022-12-06T06:25:12.520Z,244.13
2022-12-06T06:27:42.833Z,178.77
2022-12-06T06:30:13.995Z,205.60
2022-12-06T06:32:43.214Z,159.07
2022-12-06T06:35:12.055Z,192.40
2022-12-06T06:37:41.060Z,205.17
2022-12-06T06:40:11.594Z,192.17
2022-12-06T06:42:40.583Z,129.63
2022-12-06T06:45:12.313Z,186.80
2022-12-06T06:47:41.422Z,231.50
2022-12-06T06:50:11.169Z,198.70
2022-12-06T06:52:41.250Z,251.67
2022-12-06T06:55:10.549Z,195.90
2022-12-06T06:57:41.067Z,267.23
2022-12-06T07:00:12.894Z,258.10
2022-12-06T07:02:41.641Z,200.63
2022-12-06T07:05:10.701Z,295.17
2022-12-06T07:07:39.594Z,367.03
2022-12-06T07:10:09.641Z,225.33
2022-12-06T07:12:38.359Z,302.20
2022-12-06T07:15:08.662Z,263.03
2022-12-06T07:17:38.928Z,293.40
2022-12-06T07:20:09.401Z,314.60
2022-12-06T07:22:38.366Z,191.63
2022-12-06T07:25:07.810Z,297.57
2022-12-06T07:27:37.102Z,352.33
2022-12-06T07:30:06.917Z,299.47
2022-12-06T07:32:39.406Z,250.97
2022-12-06T07:35:10.901Z,244.53
2022-12-06T07:37:42.928Z,285.20
2022-12-06T07:40:13.714Z,287.77
2022-12-06T07:43:00.166Z,301.70
2022-12-06T07:45:29.185Z,388.20
2022-12-06T07:47:58.147Z,442.87
2022-12-06T07:50:28.411Z,367.13
2022-12-06T07:52:57.604Z,476.47
2022-12-06T07:55:26.576Z,265.83
2022-12-06T07:57:55.699Z,187.60
2022-12-06T08:00:24.825Z,183.10
2022-12-06T08:02:53.850Z,160.03
2022-12-06T08:05:22.714Z,182.60
2022-12-06T08:07:53.543Z,217.90
2022-12-06T08:10:22.426Z,160.00
2022-12-06T08:12:51.165Z,137.63
2022-12-06T08:15:19.833Z,197.40
2022-12-06T08:17:48.569Z,128.20
2022-12-06T08:20:17.491Z,179.00
2022-12-06T08:22:46.280Z,215.37
2022-12-06T08:25:16.839Z,172.23
2022-12-06T08:27:45.776Z,117.67
2022-12-06T08:30:15.191Z,170.67
2022-12-06T08:32:43.922Z,139.77
2022-12-06T08:35:12.619Z,126.23
2022-12-06T08:37:41.462Z,146.20
2022-12-06T08:40:11.039Z,133.93
2022-12-06T08:42:42.048Z,118.00
2022-12-06T08:45:11.015Z,121.13
2022-12-06T08:47:39.697Z,114.43
2022-12-06T08:50:09.748Z,106.43
2022-12-06T08:52:38.604Z,157.27
2022-12-06T08:55:08.577Z,125.17
2022-12-06T08:57:37.602Z,98.97
2022-12-06T09:00:09.476Z,89.77
2022-12-06T09:02:40.138Z,101.40
2022-12-06T09:05:09.752Z,103.50
2022-12-06T09:07:38.669Z,101.73
2022-12-06T09:10:10.089Z,116.10
2022-12-06T09:12:39.058Z,113.27
2022-12-06T09:15:10.729Z,120.03
2022-12-06T09:17:39.423Z,103.97
2022-12-06T09:20:10.144Z,125.60
2022-12-06T09:22:39.067Z,110.47
2022-12-06T09:25:08.311Z,85.87
2022-12-06T09:27:37.198Z,124.17
2022-12-06T09:30:09.049Z,119.67
2022-12-06T09:32:37.970Z,184.53
2022-12-06T09:35:12.292Z,133.60
2022-12-06T09:37:45.333Z,124.27
2022-12-06T09:40:21.280Z,105.73
2022-12-06T09:43:09.513Z,92.83
2022-12-06T09:46:05.540Z,88.83
2022-12-06T09:49:00.375Z,117.70
2022-12-06T09:51:44.339Z,98.40
2022-12-06T09:54:35.427Z,112.37
2022-12-06T09:57:09.415Z,98.13
2022-12-06T09:59:46.216Z,93.97
2022-12-06T10:02:34.388Z,101.60
2022-12-06T10:05:26.697Z,206.37
2022-12-06T10:08:04.162Z,191.60
2022-12-06T10:10:45.791Z,147.87
2022-12-06T10:13:26.088Z,164.37
2022-12-06T10:16:08.974Z,145.10
2022-12-06T10:18:57.458Z,136.47
2022-12-06T10:21:39.009Z,102.83
2022-12-06T10:24:20.225Z,99.60
2022-12-06T10:26:51.628Z,85.17
2022-12-06T10:29:28.882Z,91.03
2022-12-06T10:32:00.601Z,85.53
2022-12-06T10:34:49.013Z,87.33
2022-12-06T10:37:30.812Z,75.90
2022-12-06T10:40:04.647Z,114.73
2022-12-06T10:42:38.747Z,110.50
2022-12-06T10:45:30.771Z,108.27
2022-12-06T10:48:02.056Z,89.10
2022-12-06T10:50:36.130Z,90.10
2022-12-06T10:53:11.743Z,98.60
2022-12-06T10:55:45.579Z,84.33
2022-12-06T10:58:27.053Z,97.77
2022-12-06T11:00:59.961Z,119.03
2022-12-06T11:03:35.268Z,96.93
2022-12-06T11:06:12.115Z,99.10
2022-12-06T11:08:45.229Z,99.33
2022-12-06T11:11:17.395Z,89.67
2022-12-06T11:13:50.140Z,127.33
2022-12-06T11:16:23.169Z,102.93
2022-12-06T11:18:52.794Z,82.57
2022-12-06T11:21:29.129Z,89.33
2022-12-06T11:24:03.349Z,80.97
2022-12-06T11:26:39.282Z,216.03
2022-12-06T11:29:12.544Z,106.40
2022-12-06T11:31:46.191Z,125.53
2022-12-06T11:34:18.393Z,201.90
2022-12-06T11:36:56.644Z,75.93
2022-12-06T11:39:29.795Z,127.53
2022-12-06T11:42:02.333Z,89.77
2022-12-06T11:44:38.990Z,129.03
2022-12-06T11:47:08.743Z,73.73
2022-12-06T11:49:41.261Z,92.23
2022-12-06T11:52:15.909Z,187.73
2022-12-06T11:54:49.321Z,73.70
2022-12-06T11:57:24.062Z,193.97
2022-12-06T12:00:15.362Z,57.63
2022-12-06T12:02:45.208Z,101.60
2022-12-06T12:05:20.796Z,60.07
2022-12-06T12:07:55.177Z,98.33
2022-12-06T12:10:35.892Z,65.57
2022-12-06T12:13:38.488Z,53.57
2022-12-06T12:16:15.018Z,49.53
2022-12-06T12:18:52.170Z,55.77
2022-12-06T12:21:32.964Z,57.10
2022-12-06T12:24:03.543Z,110.47
2022-12-06T12:26:41.588Z,54.03
2022-12-06T12:29:20.057Z,47.33
2022-12-06T12:32:00.517Z,112.27
2022-12-06T12:34:30.922Z,46.87
2022-12-06T12:37:01.428Z,42.13
2022-12-06T12:39:35.585Z,43.97
2022-12-06T12:42:06.376Z,112.10
2022-12-06T12:44:39.314Z,42.60
2022-12-06T12:47:18.894Z,226.80
2022-12-06T12:50:02.561Z,52.17
2022-12-06T12:52:33.481Z,127.73
2022-12-06T12:55:16.956Z,52.93
2022-12-06T12:57:47.823Z,43.47
2022-12-06T13:00:19.146Z,47.40
2022-12-06T13:02:52.802Z,41.63
2022-12-06T13:05:33.231Z,36.77
2022-12-06T13:08:08.835Z,33.97
2022-12-06T13:10:43.665Z,34.33
2022-12-06T13:13:18.886Z,39.00
2022-12-06T13:15:50.475Z,37.40
2022-12-06T13:18:22.444Z,36.60
2022-12-06T13:20:54.048Z,68.57
2022-12-06T13:23:25.531Z,92.77
2022-12-06T13:26:03.441Z,41.47
2022-12-06T13:28:36.681Z,41.10
2022-12-06T13:31:11.704Z,41.07
2022-12-06T13:33:46.441Z,45.13
2022-12-06T13:36:17.110Z,38.10
2022-12-06T13:38:46.300Z,44.17
2022-12-06T13:41:38.637Z,38.73
2022-12-06T13:44:40.080Z,37.00
2022-12-06T13:47:42.290Z,35.20
2022-12-06T13:50:51.249Z,31.33
2022-12-06T13:53:20.521Z,31.77
2022-12-06T13:55:59.399Z,35.93
2022-12-06T13:58:53.161Z,36.77
2022-12-06T14:01:40.285Z,44.03
2022-12-06T14:04:39.025Z,43.77
2022-12-06T14:09:41.066Z,48.73
2022-12-06T14:12:18.934Z,42.43
2022-12-06T14:14:59.064Z,40.77
2022-12-06T14:18:00.694Z,46.73
2022-12-06T14:20:28.091Z,44.90
2022-12-06T14:22:57.955Z,42.10
2022-12-06T14:25:29.801Z,45.80
2022-12-06T14:28:05.026Z,39.97
2022-12-06T14:30:35.399Z,40.97
2022-12-06T14:33:19.658Z,42.13
2022-12-06T14:35:51.634Z,43.33
2022-12-06T14:38:24.299Z,47.83
2022-12-06T14:41:11.052Z,45.73
2022-12-06T14:43:40.864Z,42.10
2022-12-06T14:46:15.935Z,44.57
2022-12-06T14:49:02.823Z,47.93
2022-12-06T14:51:37.265Z,47.40
2022-12-06T14:54:19.040Z,42.53
2022-12-06T14:56:48.605Z,41.83
2022-12-06T14:59:46.127Z,41.03
2022-12-06T15:02:24.171Z,37.13
2022-12-06T15:04:53.728Z,43.13
2022-12-06T15:07:43.523Z,44.10
2022-12-06T15:10:22.933Z,42.37
2022-12-06T15:12:58.817Z,38.30
2022-12-06T15:15:39.926Z,41.40
2022-12-06T15:18:18.427Z,43.47
2022-12-06T15:20:48.946Z,47.43
2022-12-06T15:23:47.771Z,52.73
2022-12-06T15:26:17.079Z,63.00
2022-12-06T15:28:45.859Z,62.17
2022-12-06T15:31:19.963Z,58.27
2022-12-06T15:33:55.484Z,101.53
2022-12-06T15:36:25.957Z,48.97
2022-12-06T15:38:55.287Z,51.80
2022-12-06T15:41:27.829Z,42.63
2022-12-06T15:43:57.773Z,33.37
2022-12-06T15:46:29.325Z,33.80
2022-12-06T15:49:00.414Z,32.17
2022-12-06T15:51:30.262Z,33.03
2022-12-06T15:54:00.067Z,32.67
2022-12-06T15:56:32.084Z,30.87
2022-12-06T15:59:01.218Z,35.97
2022-12-06T16:01:34.644Z,34.43
2022-12-06T16:04:05.276Z,33.57
2022-12-06T16:06:34.959Z,36.70
2022-12-06T16:09:04.153Z,35.80
2022-12-06T16:11:33.180Z,33.80
2022-12-06T16:14:02.840Z,33.20
2022-12-06T16:16:31.795Z,35.87
2022-12-06T16:19:06.813Z,33.30
2022-12-06T16:21:51.452Z,36.43
2022-12-06T16:24:19.971Z,33.47
2022-12-06T16:26:49.614Z,33.87
2022-12-06T16:29:23.633Z,35.83
2022-12-06T16:31:53.164Z,33.60
2022-12-06T16:34:22.314Z,37.43
2022-12-06T16:36:58.153Z,32.60
2022-12-06T16:39:27.829Z,29.70
2022-12-06T16:41:59.317Z,30.43
2022-12-06T16:44:31.233Z,30.07
2022-12-06T16:47:00.232Z,30.17
2022-12-06T16:49:49.479Z,30.97
2022-12-06T16:52:19.610Z,32.07
2022-12-06T16:54:48.350Z,28.60
2022-12-06T16:57:19.508Z,30.03
2022-12-06T16:59:50.883Z,27.50
2022-12-06T17:02:28.193Z,29.87
2022-12-06T17:04:57.598Z,31.50
2022-12-06T17:07:28.809Z,31.90
2022-12-06T17:09:57.724Z,31.27
2022-12-06T17:12:26.422Z,29.03
2022-12-06T17:14:55.141Z,30.17
2022-12-06T17:17:26.259Z,28.50
2022-12-06T17:19:56.392Z,31.83
2022-12-06T17:22:25.230Z,33.47
2022-12-06T17:24:55.477Z,35.00
2022-12-06T17:27:24.611Z,40.07
2022-12-06T17:29:53.581Z,37.30
2022-12-06T17:32:23.698Z,36.13
2022-12-06T17:34:55.258Z,35.50
2022-12-06T17:37:24.051Z,34.80
2022-12-06T17:39:54.120Z,35.97
2022-12-06T17:42:40.637Z,33.77
2022-12-06T17:45:09.882Z,33.53
2022-12-06T17:47:38.486Z,36.17
2022-12-06T17:50:13.853Z,36.27
2022-12-06T17:52:42.902Z,36.57
2022-12-06T17:55:14.602Z,33.77
2022-12-06T17:57:43.716Z,31.37
2022-12-06T18:00:13.291Z,36.40
2022-12-06T18:02:42.181Z,31.23
2022-12-06T18:05:14.261Z,36.33
2022-12-06T18:07:45.544Z,36.43
2022-12-06T18:10:17.256Z,34.33
2022-12-06T18:12:46.121Z,36.10
2022-12-06T18:15:39.364Z,32.97
2022-12-06T18:18:08.266Z,31.13
2022-12-06T18:20:37.355Z,32.87
2022-12-06T18:23:09.117Z,33.47
2022-12-06T18:25:40.922Z,36.13
2022-12-06T18:28:10.156Z,36.17
2022-12-06T18:30:39.066Z,33.07
2022-12-06T18:33:07.784Z,33.40
2022-12-06T18:35:37.224Z,30.63
2022-12-06T18:38:06.122Z,30.87
2022-12-06T18:40:35.019Z,29.73
2022-12-06T18:43:07.312Z,31.80
2022-12-06T18:45:36.052Z,34.50
2022-12-06T18:48:05.805Z,36.83
2022-12-06T18:50:34.646Z,33.23
2022-12-06T18:53:03.465Z,32.17
2022-12-06T18:55:38.418Z,31.50
2022-12-06T18:58:11.145Z,36.43
2022-12-06T19:00:47.271Z,37.07
2022-12-06T19:03:18.303Z,36.23
2022-12-06T19:06:04.939Z,38.23
2022-12-06T19:08:34.075Z,33.13
2022-12-06T19:11:03.001Z,36.13
2022-12-06T19:13:35.594Z,40.30
2022-12-06T19:16:04.953Z,32.67
2022-12-06T19:18:33.990Z,29.67
2022-12-06T19:21:03.046Z,29.33
2022-12-06T19:23:31.923Z,31.60
2022-12-06T19:26:01.930Z,31.37
2022-12-06T19:28:33.538Z,32.90
2022-12-06T19:31:05.329Z,31.53
2022-12-06T19:33:37.132Z,33.97
2022-12-06T19:36:08.971Z,37.50
2022-12-06T19:38:37.867Z,36.50
2022-12-06T19:41:08.951Z,33.67
2022-12-06T19:43:59.793Z,38.40
2022-12-06T19:46:30.676Z,37.83
2022-12-06T19:49:01.029Z,33.80
2022-12-06T19:51:30.094Z,31.70
2022-12-06T19:53:59.136Z,32.10
2022-12-06T19:56:28.050Z,28.40
2022-12-06T19:59:05.258Z,23.97
2022-12-06T20:01:34.054Z,23.90
2022-12-06T20:04:04.727Z,25.63
2022-12-06T20:06:33.276Z,19.43
2022-12-06T20:09:02.485Z,20.10
2022-12-06T20:11:45.096Z,22.70
2022-12-06T20:14:17.258Z,19.50
2022-12-06T20:16:46.146Z,20.97
2022-12-06T20:19:16.658Z,21.43
2022-12-06T20:21:46.553Z,21.37
2022-12-06T20:24:20.319Z,22.20
2022-12-06T20:26:52.431Z,22.67
2022-12-06T20:29:23.470Z,24.03
2022-12-06T20:31:57.934Z,19.97
2022-12-06T20:34:28.919Z,20.93
2022-12-06T20:36:57.815Z,20.50
2022-12-06T20:39:29.498Z,20.10
2022-12-06T20:41:59.540Z,20.87
2022-12-06T20:44:29.726Z,20.67
2022-12-06T20:47:04.583Z,24.87
2022-12-06T20:49:36.039Z,23.00
2022-12-06T20:52:06.545Z,23.77
2022-12-06T20:54:44.510Z,51.97
2022-12-06T20:57:13.227Z,95.53
2022-12-06T20:59:48.868Z,18.90
2022-12-06T21:02:17.701Z,21.10
2022-12-06T21:04:48.966Z,23.60
2022-12-06T21:07:17.514Z,22.13
2022-12-06T21:09:48.474Z,20.93
2022-12-06T21:12:17.199Z,22.73
2022-12-06T21:14:45.858Z,25.33
2022-12-06T21:17:15.869Z,23.30
2022-12-06T21:19:44.515Z,24.13
2022-12-06T21:22:13.099Z,26.60
2022-12-06T21:24:41.694Z,26.50
2022-12-06T21:27:10.294Z,30.37
2022-12-06T21:29:42.637Z,23.83
2022-12-06T21:32:11.336Z,25.13
2022-12-06T21:34:46.253Z,28.83
2022-12-06T21:37:15.392Z,28.00
2022-12-06T21:39:46.409Z,33.63
2022-12-06T21:42:15.841Z,31.57
2022-12-06T21:44:44.487Z,27.97
2022-12-06T21:47:13.255Z,26.57
2022-12-06T21:49:43.309Z,27.70
2022-12-06T21:52:12.170Z,24.20
2022-12-06T21:54:41.159Z,29.30
2022-12-06T21:57:09.681Z,30.03
2022-12-06T21:59:43.205Z,25.30
2022-12-06T22:02:12.252Z,26.87
2022-12-06T22:04:41.420Z,25.17
2022-12-06T22:07:11.738Z,24.70
2022-12-06T22:09:40.766Z,23.80
2022-12-06T22:12:09.945Z,25.10
2022-12-06T22:14:38.845Z,23.43
2022-12-06T22:17:09.598Z,23.43
2022-12-06T22:19:38.792Z,22.27
2022-12-06T22:22:07.903Z,17.73
2022-12-06T22:24:38.840Z,19.50
2022-12-06T22:27:07.810Z,19.13
2022-12-06T22:29:36.840Z,18.60
2022-12-06T22:32:05.720Z,24.00
2022-12-06T22:34:34.884Z,21.23
2022-12-06T22:37:03.765Z,20.23
2022-12-06T22:39:32.581Z,22.33
2022-12-06T22:42:02.985Z,21.53
2022-12-06T22:44:31.639Z,25.47
2022-12-06T22:47:00.674Z,20.50
2022-12-06T22:49:36.218Z,20.80
2022-12-06T22:52:05.246Z,17.70
2022-12-06T22:54:34.011Z,18.07
2022-12-06T22:57:04.474Z,18.50
2022-12-06T22:59:33.427Z,18.30
2022-12-06T23:02:05.621Z,18.97
2022-12-06T23:04:34.604Z,16.87
2022-12-06T23:07:04.039Z,17.60
2022-12-06T23:09:33.471Z,18.57
2022-12-06T23:12:07.648Z,18.93
2022-12-06T23:14:39.398Z,16.10
2022-12-06T23:17:08.935Z,18.57
2022-12-06T23:19:37.497Z,19.00
2022-12-06T23:22:06.368Z,17.07
2022-12-06T23:24:35.319Z,20.57
2022-12-06T23:27:11.948Z,21.80
2022-12-06T23:29:40.907Z,18.13
2022-12-06T23:32:10.970Z,20.27
2022-12-06T23:34:40.626Z,18.53
2022-12-06T23:37:10.271Z,18.17
2022-12-06T23:39:39.487Z,20.37
2022-12-06T23:42:11.040Z,15.87
2022-12-06T23:44:40.251Z,18.57
2022-12-06T23:47:09.536Z,16.27
2022-12-06T23:49:38.437Z,16.63
2022-12-06T23:52:07.214Z,17.43
2022-12-06T23:54:35.922Z,15.93
2022-12-06T23:57:05.015Z,14.50
2022-12-06T23:59:35.275Z,18.47
